< < Back
Terminal Aerodrome Forecast


Current Version              Previous Versions:   1  2  3  4  5  6  7  8  9  

Terminal Aerodrome Forecast

470
FTUS44 KBMX 242328
TAFMGM
TAF
KMGM 242328Z 2500/2524 25007KT P6SM SCT060
     FM250100 23002KT P6SM SKC
     FM251400 31006KT P6SM FEW050=

Latest METAR

471
SAUS80 KWBC 252000 RRD
MTRMGM
METAR KMGM 252053Z AUTO VRB03KT 10SM CLR 37/18 A3002 RMK AO2 SLP163
T03670183 56019


USA.gov is the U.S. government's official web portal to all federal, state and local government web resources and services.